Time;durP1;ratioP1;P1;durP2;ratioP2;P2;SDS_P1;SDS_P2;PMS_P1;PMS_P2;Temp;Humidity;BMP_temperature;BMP_pressure;BME280_temperature;BME280_humidity;BME280_pressure;Samples;Min_cycle;Max_cycle;Signal;HPM_P1;HPM_P2
2023/05/20 00:02:08;;;;;;;;;;;14.60;99.90;;;;;;5093700;28;20428;-63
2023/05/20 00:04:33;;;;;;;;;;;14.50;99.90;;;;;;5094374;28;19980;-64
2023/05/20 00:06:59;;;;;;;;;;;14.30;99.90;;;;;;5094318;28;19995;-63
2023/05/20 00:09:25;;;;;;;;;;;14.30;99.90;;;;;;5094313;28;20107;-63
2023/05/20 00:11:50;;;;;;;;;;;14.40;99.90;;;;;;5094293;28;19981;-63
2023/05/20 00:14:16;;;;;;;;;;;14.50;99.90;;;;;;5094313;28;19989;-64
2023/05/20 00:16:42;;;;;;;;;;;14.50;99.90;;;;;;5094544;28;19989;-65
2023/05/20 00:19:08;;;;;;;;;;;14.50;99.90;;;;;;5092910;28;20378;-64
2023/05/20 00:21:33;;;;;;;;;;;14.60;99.90;;;;;;5094028;28;19986;-64
2023/05/20 00:23:59;;;;;;;;;;;14.60;99.90;;;;;;5094134;28;19981;-64
2023/05/20 00:26:25;;;;;;;;;;;14.60;99.90;;;;;;5094245;28;19988;-64
2023/05/20 00:28:51;;;;;;;;;;;14.70;99.90;;;;;;5094218;28;20032;-63
2023/05/20 00:31:16;;;;;;;;;;;14.70;99.90;;;;;;5093974;28;20463;-63
2023/05/20 00:33:42;;;;;;;;;;;14.70;99.90;;;;;;5094053;28;19982;-63
2023/05/20 00:36:07;;;;;;;;;;;14.80;99.90;;;;;;5093738;28;19985;-64
2023/05/20 00:38:33;;;;;;;;;;;14.80;99.90;;;;;;5093952;28;20107;-63
2023/05/20 00:40:58;;;;;;;;;;;14.80;99.90;;;;;;5093963;28;20004;-64
2023/05/20 00:43:25;;;;;;;;;;;14.80;99.90;;;;;;5093785;28;20052;-63
2023/05/20 00:45:51;;;;;;;;;;;14.60;99.90;;;;;;5093987;28;19981;-64
2023/05/20 00:48:17;;;;;;;;;;;14.40;99.90;;;;;;5093798;28;20008;-63
2023/05/20 00:50:43;;;;;;;;;;;14.40;99.90;;;;;;5093561;28;20081;-64
2023/05/20 00:53:09;;;;;;;;;;;14.40;99.90;;;;;;5093945;28;20541;-63
2023/05/20 00:55:34;;;;;;;;;;;14.40;99.90;;;;;;5093829;28;19981;-64
2023/05/20 00:58:00;;;;;;;;;;;14.40;99.90;;;;;;5093813;28;20362;-63
2023/05/20 01:00:25;;;;;;;;;;;14.40;99.90;;;;;;5093660;28;20045;-63
2023/05/20 01:02:51;;;;;;;;;;;14.40;99.90;;;;;;5093596;28;20496;-62
2023/05/20 01:05:17;;;;;;;;;;;14.40;99.90;;;;;;5093545;28;19985;-64
2023/05/20 01:07:42;;;;;;;;;;;14.40;99.90;;;;;;5093528;28;20105;-63
2023/05/20 01:10:08;;;;;;;;;;;14.40;99.90;;;;;;5093846;28;20378;-64
2023/05/20 01:12:45;;;;;;;;;;;14.30;99.90;;;;;;5094689;28;20466;-63
2023/05/20 01:15:12;;;;;;;;;;;14.30;99.90;;;;;;5097620;28;20004;-63
2023/05/20 01:17:39;;;;;;;;;;;14.30;99.90;;;;;;5097971;28;20000;-64
2023/05/20 01:20:08;;;;;;;;;;;14.30;99.90;;;;;;5097738;28;19985;-64
2023/05/20 01:22:35;;;;;;;;;;;14.30;99.90;;;;;;5097799;28;20446;-63
2023/05/20 01:25:01;;;;;;;;;;;14.20;99.90;;;;;;5097538;28;19996;-64
2023/05/20 01:27:29;;;;;;;;;;;14.10;99.90;;;;;;5097477;28;20413;-64
2023/05/20 01:29:54;;;;;;;;;;;14.10;99.90;;;;;;5097381;28;20031;-64
2023/05/20 01:32:20;;;;;;;;;;;14.10;99.90;;;;;;5097339;28;20370;-63
2023/05/20 01:34:47;;;;;;;;;;;14.10;99.90;;;;;;5097192;28;19981;-63
2023/05/20 01:37:13;;;;;;;;;;;14.10;99.90;;;;;;5097020;28;19985;-64
2023/05/20 01:39:40;;;;;;;;;;;14.10;99.90;;;;;;5097357;28;20034;-64
2023/05/20 01:42:07;;;;;;;;;;;14.00;99.90;;;;;;5097241;28;20027;-63
2023/05/20 01:44:32;;;;;;;;;;;14.00;99.90;;;;;;5097084;28;19989;-64
2023/05/20 01:46:58;;;;;;;;;;;14.00;99.90;;;;;;5097111;28;19982;-63
2023/05/20 01:49:24;;;;;;;;;;;14.00;99.90;;;;;;5096850;28;20044;-63
2023/05/20 01:51:49;;;;;;;;;;;14.00;99.90;;;;;;5096923;28;19981;-64
2023/05/20 01:54:15;;;;;;;;;;;13.90;99.90;;;;;;5096920;28;20011;-63
2023/05/20 01:56:40;;;;;;;;;;;13.90;99.90;;;;;;5097014;28;20073;-63
2023/05/20 01:59:06;;;;;;;;;;;13.90;99.90;;;;;;5096868;28;20459;-63
2023/05/20 02:01:32;;;;;;;;;;;13.90;99.90;;;;;;5097141;28;20356;-63
2023/05/20 02:03:57;;;;;;;;;;;13.90;99.90;;;;;;5096587;28;20354;-62
2023/05/20 02:06:23;;;;;;;;;;;13.80;99.90;;;;;;5096780;28;20046;-63
2023/05/20 02:08:48;;;;;;;;;;;13.70;99.90;;;;;;5096573;28;20005;-63
2023/05/20 02:11:14;;;;;;;;;;;13.70;99.90;;;;;;5096743;28;19981;-63
2023/05/20 02:13:39;;;;;;;;;;;13.70;99.90;;;;;;5096624;28;20355;-64
2023/05/20 02:16:05;;;;;;;;;;;13.70;99.90;;;;;;5096501;28;20320;-63
2023/05/20 02:18:31;;;;;;;;;;;13.70;99.90;;;;;;5096302;28;19985;-63
2023/05/20 02:21:04;;;;;;;;;;;13.70;99.90;;;;;;5096613;28;19985;-63
2023/05/20 02:23:29;;;;;;;;;;;13.70;99.90;;;;;;5096112;28;19985;-63
2023/05/20 02:25:55;;;;;;;;;;;13.60;99.90;;;;;;5095967;28;19987;-63
2023/05/20 02:28:21;;;;;;;;;;;13.70;99.90;;;;;;5096273;28;20027;-63
2023/05/20 02:30:46;;;;;;;;;;;13.60;99.90;;;;;;5096247;28;19992;-63
2023/05/20 02:33:12;;;;;;;;;;;13.60;99.90;;;;;;5096050;28;20371;-64
2023/05/20 02:35:38;;;;;;;;;;;13.50;99.90;;;;;;5096347;28;19985;-64
2023/05/20 02:38:04;;;;;;;;;;;13.60;99.90;;;;;;5095979;28;20028;-63
2023/05/20 02:40:30;;;;;;;;;;;13.50;99.90;;;;;;5096116;28;19992;-62
2023/05/20 02:42:55;;;;;;;;;;;13.50;99.90;;;;;;5096157;28;19989;-64
2023/05/20 02:45:21;;;;;;;;;;;13.50;99.90;;;;;;5095930;28;20020;-64
2023/05/20 02:47:46;;;;;;;;;;;13.40;99.90;;;;;;5095650;28;20008;-63
2023/05/20 02:50:12;;;;;;;;;;;13.50;99.90;;;;;;5095962;28;20072;-63
2023/05/20 02:52:41;;;;;;;;;;;13.40;99.90;;;;;;5095895;28;20020;-63
2023/05/20 02:55:07;;;;;;;;;;;13.40;99.90;;;;;;5095804;28;20068;-63
2023/05/20 02:57:33;;;;;;;;;;;13.40;99.90;;;;;;5096071;28;20035;-64
2023/05/20 02:59:59;;;;;;;;;;;13.50;99.90;;;;;;5095730;28;19981;-63
2023/05/20 03:02:25;;;;;;;;;;;13.40;99.90;;;;;;5095381;28;19981;-64
2023/05/20 03:04:52;;;;;;;;;;;13.40;99.90;;;;;;5095742;28;20004;-63
2023/05/20 03:07:20;;;;;;;;;;;13.40;99.90;;;;;;5095518;28;19981;-63
2023/05/20 03:09:46;;;;;;;;;;;13.40;99.90;;;;;;5095450;28;19981;-63
2023/05/20 03:12:11;;;;;;;;;;;13.40;99.90;;;;;;5095452;28;20416;-63
2023/05/20 03:14:37;;;;;;;;;;;13.50;99.90;;;;;;5095514;28;20032;-63
2023/05/20 03:17:02;;;;;;;;;;;13.50;99.90;;;;;;5095118;28;19989;-63
2023/05/20 03:19:28;;;;;;;;;;;13.50;99.90;;;;;;5095362;28;20072;-64
2023/05/20 03:21:53;;;;;;;;;;;13.50;99.90;;;;;;5095392;28;19988;-64
2023/05/20 03:24:19;;;;;;;;;;;13.50;99.90;;;;;;5095186;28;19985;-63
2023/05/20 03:26:45;;;;;;;;;;;13.60;99.90;;;;;;5095421;28;20463;-64
2023/05/20 03:29:11;;;;;;;;;;;13.60;99.90;;;;;;5095095;28;20004;-64
2023/05/20 03:31:37;;;;;;;;;;;13.70;99.90;;;;;;5094830;28;20001;-63
2023/05/20 03:34:02;;;;;;;;;;;13.70;99.90;;;;;;5095174;28;19985;-63
2023/05/20 03:36:28;;;;;;;;;;;13.70;99.90;;;;;;5095025;28;20023;-63
2023/05/20 03:38:53;;;;;;;;;;;13.70;99.90;;;;;;5094786;28;20074;-62
2023/05/20 03:41:19;;;;;;;;;;;13.70;99.90;;;;;;5094860;28;19985;-63
2023/05/20 03:43:45;;;;;;;;;;;13.70;99.90;;;;;;5095059;28;19992;-63
2023/05/20 03:46:10;;;;;;;;;;;13.70;99.90;;;;;;5094677;28;19981;-63
2023/05/20 03:48:36;;;;;;;;;;;13.70;99.90;;;;;;5094578;28;20009;-63
2023/05/20 03:51:02;;;;;;;;;;;13.80;99.90;;;;;;5094877;28;19981;-63
2023/05/20 03:53:27;;;;;;;;;;;13.80;99.90;;;;;;5094644;28;20439;-64
2023/05/20 03:55:53;;;;;;;;;;;13.70;99.90;;;;;;5094647;28;20040;-62
2023/05/20 03:58:19;;;;;;;;;;;13.80;99.90;;;;;;5094533;28;19985;-63
2023/05/20 04:00:46;;;;;;;;;;;13.80;99.90;;;;;;5094400;28;19988;-63
2023/05/20 04:03:11;;;;;;;;;;;13.90;99.90;;;;;;5094565;28;19981;-63
2023/05/20 04:05:37;;;;;;;;;;;14.00;99.90;;;;;;5094748;28;19992;-63
2023/05/20 04:08:03;;;;;;;;;;;13.90;99.90;;;;;;5094684;28;20450;-63
2023/05/20 04:10:31;;;;;;;;;;;14.00;99.90;;;;;;5094445;28;20354;-63
2023/05/20 04:12:56;;;;;;;;;;;13.90;99.90;;;;;;5094344;28;20153;-64
2023/05/20 04:15:22;;;;;;;;;;;14.00;99.90;;;;;;5094152;28;19981;-63
2023/05/20 04:17:49;;;;;;;;;;;13.90;99.90;;;;;;5094501;28;20439;-63
2023/05/20 04:20:14;;;;;;;;;;;13.90;99.90;;;;;;5094253;28;20017;-64
2023/05/20 04:22:40;;;;;;;;;;;14.00;99.90;;;;;;5094327;28;20320;-63
2023/05/20 04:25:06;;;;;;;;;;;14.00;99.90;;;;;;5094124;28;20080;-64
2023/05/20 04:27:36;;;;;;;;;;;14.10;99.90;;;;;;5094054;28;20008;-63
2023/05/20 04:30:02;;;;;;;;;;;14.10;99.90;;;;;;5094206;28;19981;-63
2023/05/20 04:32:29;;;;;;;;;;;14.20;99.90;;;;;;5094006;28;20046;-63
2023/05/20 04:34:54;;;;;;;;;;;14.10;99.90;;;;;;5094202;28;20359;-63
2023/05/20 04:37:21;;;;;;;;;;;14.20;99.90;;;;;;5093758;28;20025;-63
2023/05/20 04:39:48;;;;;;;;;;;14.30;99.90;;;;;;5094014;28;19985;-63
2023/05/20 04:42:16;;;;;;;;;;;14.30;99.90;;;;;;5094033;28;20450;-64
2023/05/20 04:44:44;;;;;;;;;;;14.40;99.90;;;;;;5094085;28;19985;-63
2023/05/20 04:47:10;;;;;;;;;;;14.40;99.90;;;;;;5093432;28;19988;-63
2023/05/20 04:49:37;;;;;;;;;;;14.50;99.90;;;;;;5093770;28;20375;-64
2023/05/20 04:52:03;;;;;;;;;;;14.50;99.90;;;;;;5092870;28;20556;-63
2023/05/20 04:54:29;;;;;;;;;;;14.60;99.90;;;;;;5093839;28;19981;-64
2023/05/20 04:56:55;;;;;;;;;;;14.70;99.90;;;;;;5093598;28;20355;-63
2023/05/20 04:59:21;;;;;;;;;;;14.80;99.90;;;;;;5093611;28;19981;-63
2023/05/20 05:01:46;;;;;;;;;;;15.00;99.90;;;;;;5093823;28;20333;-64
2023/05/20 05:04:12;;;;;;;;;;;15.00;99.90;;;;;;5093735;28;19981;-63
2023/05/20 05:06:38;;;;;;;;;;;15.10;99.90;;;;;;5093878;28;20030;-63
2023/05/20 05:09:03;;;;;;;;;;;15.10;99.90;;;;;;5093591;28;20123;-64
2023/05/20 05:11:29;;;;;;;;;;;15.20;99.90;;;;;;5093701;28;20458;-63
2023/05/20 05:13:55;;;;;;;;;;;15.30;99.90;;;;;;5093545;28;19981;-63
2023/05/20 05:16:21;;;;;;;;;;;15.30;99.90;;;;;;5093586;28;19981;-63
2023/05/20 05:18:46;;;;;;;;;;;15.30;99.90;;;;;;5093514;28;20024;-63
2023/05/20 05:21:12;;;;;;;;;;;15.30;99.90;;;;;;5093524;28;19982;-63
2023/05/20 05:23:38;;;;;;;;;;;15.40;99.90;;;;;;5093457;28;19988;-63
2023/05/20 05:26:03;;;;;;;;;;;15.40;99.90;;;;;;5093309;28;19989;-63
2023/05/20 05:28:29;;;;;;;;;;;15.40;99.90;;;;;;5093411;28;20107;-63
2023/05/20 05:30:57;;;;;;;;;;;15.50;99.90;;;;;;5093384;28;19985;-63
2023/05/20 05:33:23;;;;;;;;;;;15.50;99.90;;;;;;5093355;28;19997;-63
2023/05/20 05:35:49;;;;;;;;;;;15.40;99.90;;;;;;5093447;28;19988;-63
2023/05/20 05:38:14;;;;;;;;;;;15.40;99.90;;;;;;5093098;28;20021;-63
2023/05/20 05:40:40;;;;;;;;;;;15.40;99.90;;;;;;5093191;28;20016;-63
2023/05/20 05:43:05;;;;;;;;;;;15.50;99.90;;;;;;5093299;28;20088;-63
2023/05/20 05:45:31;;;;;;;;;;;15.70;99.90;;;;;;5093239;28;20460;-63
2023/05/20 05:47:56;;;;;;;;;;;15.80;99.90;;;;;;5093327;28;20009;-63
2023/05/20 05:50:22;;;;;;;;;;;15.90;99.90;;;;;;5093223;28;19987;-63
2023/05/20 05:52:48;;;;;;;;;;;15.90;99.90;;;;;;5093173;28;20019;-64
2023/05/20 05:55:13;;;;;;;;;;;15.80;99.90;;;;;;5093304;28;19989;-64
2023/05/20 05:57:39;;;;;;;;;;;15.70;99.90;;;;;;5093233;28;19980;-63
2023/05/20 06:00:05;;;;;;;;;;;15.80;99.90;;;;;;5094949;28;19982;-63
2023/05/20 06:02:34;;;;;;;;;;;16.00;99.90;;;;;;5096788;28;19981;-62
2023/05/20 06:05:01;;;;;;;;;;;16.20;99.90;;;;;;5096931;28;20076;-63
2023/05/20 06:07:27;;;;;;;;;;;16.20;99.90;;;;;;5096756;28;19992;-63
2023/05/20 06:09:52;;;;;;;;;;;16.40;99.90;;;;;;5096410;28;19981;-63
2023/05/20 06:12:18;;;;;;;;;;;16.60;99.90;;;;;;5096656;28;19985;-63
2023/05/20 06:14:43;;;;;;;;;;;16.70;99.90;;;;;;5096597;28;19981;-63
2023/05/20 06:17:09;;;;;;;;;;;16.90;99.90;;;;;;5096504;28;19981;-63
2023/05/20 06:19:34;;;;;;;;;;;17.10;99.90;;;;;;5096517;28;19982;-64
2023/05/20 06:22:00;;;;;;;;;;;17.10;99.90;;;;;;5096514;28;19988;-64
2023/05/20 06:24:25;;;;;;;;;;;17.40;99.90;;;;;;5096215;28;20071;-64
2023/05/20 06:26:51;;;;;;;;;;;17.60;99.90;;;;;;5096672;28;19985;-63
2023/05/20 06:29:17;;;;;;;;;;;17.70;99.90;;;;;;5096312;28;20009;-63
2023/05/20 06:31:42;;;;;;;;;;;17.80;99.90;;;;;;5096189;28;20444;-64
2023/05/20 06:34:08;;;;;;;;;;;17.80;99.90;;;;;;5096182;28;20371;-63
2023/05/20 06:36:33;;;;;;;;;;;17.80;99.90;;;;;;5096591;28;19981;-64
2023/05/20 06:38:59;;;;;;;;;;;17.60;99.90;;;;;;5095799;28;20074;-63
2023/05/20 06:41:25;;;;;;;;;;;17.60;99.90;;;;;;5096049;28;20069;-63
2023/05/20 06:43:50;;;;;;;;;;;17.30;99.90;;;;;;5096420;28;19989;-63
2023/05/20 06:46:16;;;;;;;;;;;17.40;99.90;;;;;;5096036;28;20367;-63
2023/05/20 06:48:42;;;;;;;;;;;17.60;99.90;;;;;;5095737;28;20044;-62
2023/05/20 06:51:10;;;;;;;;;;;17.40;99.90;;;;;;5095958;28;19987;-62
2023/05/20 06:53:36;;;;;;;;;;;17.50;99.90;;;;;;5095652;28;20454;-63
2023/05/20 06:56:01;;;;;;;;;;;18.00;99.90;;;;;;5095756;28;19989;-63
2023/05/20 06:58:27;;;;;;;;;;;18.50;99.90;;;;;;5095914;28;19985;-63
2023/05/20 07:00:53;;;;;;;;;;;18.90;99.90;;;;;;5095755;28;19982;-63
2023/05/20 07:03:18;;;;;;;;;;;18.80;99.90;;;;;;5095659;28;20081;-63
2023/05/20 07:05:44;;;;;;;;;;;18.30;99.90;;;;;;5094389;28;19989;-63
2023/05/20 07:08:10;;;;;;;;;;;18.40;99.90;;;;;;5095278;28;20012;-63
2023/05/20 07:10:35;;;;;;;;;;;18.80;99.90;;;;;;5095225;28;19986;-63
2023/05/20 07:13:01;;;;;;;;;;;18.70;99.90;;;;;;5095361;28;19981;-63
2023/05/20 07:15:27;;;;;;;;;;;18.80;99.90;;;;;;5095453;28;19985;-64
2023/05/20 07:17:52;;;;;;;;;;;19.40;99.90;;;;;;5095374;28;19981;-62
2023/05/20 07:20:18;;;;;;;;;;;20.20;99.90;;;;;;5095302;28;20036;-63
2023/05/20 07:22:44;;;;;;;;;;;21.40;99.90;;;;;;5095220;28;19981;-63
2023/05/20 07:25:09;;;;;;;;;;;21.90;99.90;;;;;;5095297;28;19988;-64
2023/05/20 07:27:35;;;;;;;;;;;22.30;99.90;;;;;;5095086;28;19988;-63
2023/05/20 07:30:01;;;;;;;;;;;23.20;98.70;;;;;;5095407;28;19988;-63
2023/05/20 07:32:26;;;;;;;;;;;23.80;96.90;;;;;;5095036;28;20472;-63
2023/05/20 07:34:52;;;;;;;;;;;24.40;95.70;;;;;;5095102;28;20092;-63
2023/05/20 07:37:17;;;;;;;;;;;24.80;93.80;;;;;;5094573;28;19992;-63
2023/05/20 07:39:43;;;;;;;;;;;25.00;92.30;;;;;;5095091;28;20072;-63
2023/05/20 07:42:09;;;;;;;;;;;25.60;91.90;;;;;;5094977;28;19989;-64
2023/05/20 07:44:34;;;;;;;;;;;26.80;90.30;;;;;;5095118;28;19993;-63
2023/05/20 07:47:00;;;;;;;;;;;27.50;85.70;;;;;;5094946;28;19981;-63
2023/05/20 07:49:26;;;;;;;;;;;28.00;84.80;;;;;;5094747;28;20456;-63
2023/05/20 07:51:51;;;;;;;;;;;28.60;80.20;;;;;;5094836;28;20350;-64
2023/05/20 07:54:17;;;;;;;;;;;28.50;77.20;;;;;;5094728;28;20392;-64
2023/05/20 07:56:42;;;;;;;;;;;28.60;76.80;;;;;;5094987;28;19985;-63
2023/05/20 07:59:08;;;;;;;;;;;28.40;74.40;;;;;;5094855;28;19985;-63
2023/05/20 08:01:33;;;;;;;;;;;28.00;76.40;;;;;;5094736;28;20004;-63
2023/05/20 08:03:59;;;;;;;;;;;27.80;75.40;;;;;;5094549;28;19985;-63
2023/05/20 08:06:25;;;;;;;;;;;27.10;75.70;;;;;;5094297;28;20019;-64
2023/05/20 08:08:53;;;;;;;;;;;26.70;77.60;;;;;;5094321;28;20005;-64
2023/05/20 08:11:20;;;;;;;;;;;25.80;80.20;;;;;;5094392;28;19985;-63
2023/05/20 08:13:45;;;;;;;;;;;25.50;81.80;;;;;;5094390;28;20010;-63
2023/05/20 08:16:11;;;;;;;;;;;25.60;81.30;;;;;;5094284;28;20076;-63
2023/05/20 08:18:37;;;;;;;;;;;26.20;84.00;;;;;;5094363;28;19992;-63
2023/05/20 08:21:03;;;;;;;;;;;26.90;81.70;;;;;;5094186;28;20411;-63
2023/05/20 08:23:29;;;;;;;;;;;27.10;79.00;;;;;;5093450;28;20017;-64
2023/05/20 08:25:56;;;;;;;;;;;27.70;78.40;;;;;;5094182;28;20030;-64
2023/05/20 08:28:21;;;;;;;;;;;28.40;77.80;;;;;;5094351;28;20477;-62
2023/05/20 08:30:47;;;;;;;;;;;28.50;75.80;;;;;;5094065;28;20084;-64
2023/05/20 08:33:13;;;;;;;;;;;28.40;74.70;;;;;;5094078;28;20019;-62
2023/05/20 08:35:39;;;;;;;;;;;28.00;76.30;;;;;;5093905;28;20431;-63
2023/05/20 08:38:05;;;;;;;;;;;27.10;76.60;;;;;;5093708;28;20017;-63
2023/05/20 08:40:33;;;;;;;;;;;26.90;78.80;;;;;;5093964;28;20046;-64
2023/05/20 08:43:00;;;;;;;;;;;27.30;81.50;;;;;;5094206;28;19985;-64
2023/05/20 08:45:27;;;;;;;;;;;27.40;78.30;;;;;;5093872;28;19988;-64
2023/05/20 08:47:53;;;;;;;;;;;27.70;79.20;;;;;;5094079;28;20016;-63
2023/05/20 08:50:19;;;;;;;;;;;28.30;78.80;;;;;;5093650;28;20328;-63
2023/05/20 08:52:45;;;;;;;;;;;29.10;74.50;;;;;;5093749;28;19992;-64
2023/05/20 08:55:21;;;;;;;;;;;29.20;75.10;;;;;;5093759;28;20577;-64
2023/05/20 08:57:50;;;;;;;;;;;29.90;75.50;;;;;;5093780;28;19984;-63
2023/05/20 09:00:17;;;;;;;;;;;30.00;75.70;;;;;;5093592;28;20483;-63
2023/05/20 09:02:46;;;;;;;;;;;30.50;72.40;;;;;;5093743;28;19981;-63
2023/05/20 09:05:11;;;;;;;;;;;30.70;72.60;;;;;;5093524;28;19981;-63
2023/05/20 09:07:37;;;;;;;;;;;31.40;73.20;;;;;;5093454;28;19995;-63
2023/05/20 09:10:03;;;;;;;;;;;31.60;69.40;;;;;;5093957;28;19992;-63
2023/05/20 09:12:28;;;;;;;;;;;32.00;69.60;;;;;;5093650;28;20011;-64
2023/05/20 09:14:54;;;;;;;;;;;32.20;69.70;;;;;;5093598;28;19981;-63
2023/05/20 09:17:20;;;;;;;;;;;32.00;69.20;;;;;;5093874;28;20355;-62
2023/05/20 09:19:50;;;;;;;;;;;31.70;67.90;;;;;;5093392;28;20046;-64
2023/05/20 09:22:20;;;;;;;;;;;31.50;68.60;;;;;;5093515;28;19985;-63
2023/05/20 09:24:47;;;;;;;;;;;31.50;69.20;;;;;;5093835;28;19985;-63
2023/05/20 09:27:12;;;;;;;;;;;31.80;67.70;;;;;;5093637;28;19981;-64
2023/05/20 09:29:38;;;;;;;;;;;32.00;66.20;;;;;;5093395;28;20012;-64
2023/05/20 09:32:04;;;;;;;;;;;32.10;65.30;;;;;;5093320;28;20008;-63
2023/05/20 09:34:29;;;;;;;;;;;32.10;65.50;;;;;;5095749;28;19988;-64
2023/05/20 09:36:58;;;;;;;;;;;32.30;63.80;;;;;;5097434;28;20035;-62
2023/05/20 09:39:24;;;;;;;;;;;32.30;64.80;;;;;;5097167;28;20437;-64
2023/05/20 09:42:01;;;;;;;;;;;32.40;63.20;;;;;;5097280;28;19982;-64
2023/05/20 09:44:28;;;;;;;;;;;32.30;65.10;;;;;;5097210;28;20020;-63
2023/05/20 09:46:55;;;;;;;;;;;32.00;58.70;;;;;;5097474;28;19985;-64
2023/05/20 09:49:22;;;;;;;;;;;31.70;63.70;;;;;;5096876;28;20005;-63
2023/05/20 09:51:48;;;;;;;;;;;32.10;61.20;;;;;;5097013;28;20035;-64
2023/05/20 09:54:14;;;;;;;;;;;31.90;59.90;;;;;;5097062;28;19981;-63
2023/05/20 09:56:40;;;;;;;;;;;31.90;54.70;;;;;;5097575;28;19984;-65
2023/05/20 09:59:06;;;;;;;;;;;31.70;51.30;;;;;;5096936;28;19981;-64
2023/05/20 10:01:32;;;;;;;;;;;31.30;49.30;;;;;;5097192;28;19985;-62
2023/05/20 10:03:58;;;;;;;;;;;30.70;52.20;;;;;;5096879;28;19992;-64
2023/05/20 10:06:33;;;;;;;;;;;30.60;52.40;;;;;;5096786;28;19985;-63
2023/05/20 10:09:07;;;;;;;;;;;29.70;48.70;;;;;;5096690;28;20012;-64
2023/05/20 10:11:37;;;;;;;;;;;29.70;51.10;;;;;;5096661;28;20362;-63
2023/05/20 10:14:14;;;;;;;;;;;29.90;51.00;;;;;;5096590;28;20076;-64
2023/05/20 10:16:42;;;;;;;;;;;29.80;52.50;;;;;;5096727;28;20036;-64
2023/05/20 10:19:28;;;;;;;;;;;30.10;54.20;;;;;;5096432;28;20450;-63
2023/05/20 10:22:00;;;;;;;;;;;30.50;55.80;;;;;;5096495;28;20443;-64
2023/05/20 10:24:33;;;;;;;;;;;30.70;51.90;;;;;;5096655;28;19985;-64
2023/05/20 10:27:01;;;;;;;;;;;30.50;49.70;;;;;;5096729;28;20034;-63
2023/05/20 10:29:27;;;;;;;;;;;30.60;52.00;;;;;;5096312;28;20381;-64
2023/05/20 10:31:53;;;;;;;;;;;30.40;48.30;;;;;;5095928;28;19997;-64
2023/05/20 10:34:19;;;;;;;;;;;30.80;51.40;;;;;;5096219;28;19989;-62
2023/05/20 10:36:54;;;;;;;;;;;31.10;52.20;;;;;;5096723;28;19992;-63
2023/05/20 10:39:30;;;;;;;;;;;31.40;47.80;;;;;;5095906;28;20032;-64
2023/05/20 10:42:08;;;;;;;;;;;31.40;48.10;;;;;;5096240;28;19981;-64
2023/05/20 10:44:40;;;;;;;;;;;31.20;49.90;;;;;;5095827;28;20016;-63
2023/05/20 10:47:06;;;;;;;;;;;31.00;46.90;;;;;;5095331;28;19985;-64
2023/05/20 10:49:37;;;;;;;;;;;30.60;51.10;;;;;;5095910;28;20012;-64
2023/05/20 10:52:03;;;;;;;;;;;30.70;48.80;;;;;;5095947;28;19981;-63
2023/05/20 10:54:34;;;;;;;;;;;29.50;50.10;;;;;;5095974;28;20336;-62
2023/05/20 10:56:59;;;;;;;;;;;30.00;51.40;;;;;;5095754;28;20500;-63
2023/05/20 10:59:25;;;;;;;;;;;30.30;49.60;;;;;;5095800;28;20076;-63
2023/05/20 11:01:51;;;;;;;;;;;30.40;52.00;;;;;;5095508;28;19981;-64
2023/05/20 11:04:18;;;;;;;;;;;30.60;52.50;;;;;;5095655;28;20451;-64
2023/05/20 11:06:52;;;;;;;;;;;30.60;53.70;;;;;;5095963;28;19985;-64
2023/05/20 11:09:18;;;;;;;;;;;30.80;55.80;;;;;;5095768;28;20009;-62
2023/05/20 11:11:44;;;;;;;;;;;30.80;54.70;;;;;;5095447;28;20343;-62
2023/05/20 11:14:12;;;;;;;;;;;30.70;53.30;;;;;;5095956;28;19985;-63
2023/05/20 11:16:38;;;;;;;;;;;31.00;56.10;;;;;;5095571;28;20023;-64
2023/05/20 11:19:06;;;;;;;;;;;31.20;52.10;;;;;;5095355;28;20020;-63
2023/05/20 11:21:31;;;;;;;;;;;31.30;53.60;;;;;;5095339;28;19988;-63
2023/05/20 11:23:57;;;;;;;;;;;31.70;53.80;;;;;;5095613;28;20075;-63
2023/05/20 11:26:23;;;;;;;;;;;32.00;52.90;;;;;;5095203;28;19991;-64
2023/05/20 11:28:48;;;;;;;;;;;32.00;51.80;;;;;;5095197;28;20005;-64
2023/05/20 11:31:14;;;;;;;;;;;31.90;51.50;;;;;;5095185;28;20071;-64
2023/05/20 11:33:41;;;;;;;;;;;31.70;53.20;;;;;;5095141;28;20079;-64
2023/05/20 11:36:08;;;;;;;;;;;31.90;54.10;;;;;;5095288;28;20120;-63
2023/05/20 11:38:33;;;;;;;;;;;32.10;52.60;;;;;;5095019;28;20017;-62
2023/05/20 11:40:59;;;;;;;;;;;32.10;52.50;;;;;;5095014;28;19989;-65
2023/05/20 11:43:25;;;;;;;;;;;31.80;53.90;;;;;;5094985;28;20068;-62
2023/05/20 11:45:54;;;;;;;;;;;31.80;52.20;;;;;;5095162;28;20443;-64
2023/05/20 11:48:20;;;;;;;;;;;31.80;53.60;;;;;;5095076;28;20467;-63
2023/05/20 11:50:46;;;;;;;;;;;32.30;54.40;;;;;;5094738;28;19981;-62
2023/05/20 11:53:18;;;;;;;;;;;32.30;54.80;;;;;;5095053;28;19992;-63
2023/05/20 11:55:48;;;;;;;;;;;32.50;53.90;;;;;;5094766;28;20443;-64
2023/05/20 11:58:23;;;;;;;;;;;32.40;50.80;;;;;;5093426;28;20439;-64
2023/05/20 12:00:49;;;;;;;;;;;31.90;53.40;;;;;;5094708;28;19988;-63
2023/05/20 12:03:15;;;;;;;;;;;31.80;53.40;;;;;;5094525;28;20439;-63
2023/05/20 12:05:41;;;;;;;;;;;31.40;54.90;;;;;;5094575;28;19981;-64
2023/05/20 12:08:07;;;;;;;;;;;31.30;57.40;;;;;;5094390;28;20062;-64
2023/05/20 12:10:33;;;;;;;;;;;31.40;56.70;;;;;;5094384;28;20067;-64
2023/05/20 12:12:58;;;;;;;;;;;31.50;55.00;;;;;;5092923;28;19993;-63
2023/05/20 12:15:24;;;;;;;;;;;31.30;54.10;;;;;;5094522;28;19981;-64
2023/05/20 12:17:52;;;;;;;;;;;30.90;54.50;;;;;;5094250;28;19981;-64
2023/05/20 12:20:20;;;;;;;;;;;30.70;55.20;;;;;;5094226;28;20501;-63
2023/05/20 12:22:45;;;;;;;;;;;30.90;55.70;;;;;;5094519;28;20347;-64
2023/05/20 12:25:13;;;;;;;;;;;30.60;55.40;;;;;;5094147;28;19981;-63
2023/05/20 12:27:39;;;;;;;;;;;30.40;56.40;;;;;;5094092;28;20016;-63
2023/05/20 12:30:05;;;;;;;;;;;30.10;55.50;;;;;;5094271;28;20025;-63
2023/05/20 12:32:31;;;;;;;;;;;30.00;57.50;;;;;;5093996;28;19997;-63
2023/05/20 12:34:56;;;;;;;;;;;30.10;56.80;;;;;;5094250;28;20000;-63
2023/05/20 12:37:22;;;;;;;;;;;30.10;55.70;;;;;;5093892;28;20017;-63
2023/05/20 12:39:47;;;;;;;;;;;30.00;55.60;;;;;;5094150;28;19981;-64
2023/05/20 12:42:13;;;;;;;;;;;29.70;54.40;;;;;;5093689;28;20030;-63
2023/05/20 12:44:38;;;;;;;;;;;29.60;53.00;;;;;;5094052;28;19981;-64
2023/05/20 12:47:04;;;;;;;;;;;29.70;54.70;;;;;;5094101;28;20020;-63
2023/05/20 12:49:30;;;;;;;;;;;30.20;55.00;;;;;;5094128;28;20070;-64
2023/05/20 12:51:55;;;;;;;;;;;30.30;52.30;;;;;;5094085;28;20008;-63
2023/05/20 12:54:21;;;;;;;;;;;30.10;51.90;;;;;;5093865;28;20344;-63
2023/05/20 12:56:47;;;;;;;;;;;29.80;51.70;;;;;;5093901;28;19989;-63
2023/05/20 12:59:13;;;;;;;;;;;29.90;52.50;;;;;;5093739;28;19981;-62
2023/05/20 13:01:39;;;;;;;;;;;29.80;52.60;;;;;;5093697;28;20428;-63
2023/05/20 13:04:04;;;;;;;;;;;29.70;50.50;;;;;;5093968;28;20459;-64
2023/05/20 13:06:30;;;;;;;;;;;29.60;50.70;;;;;;5093632;28;20602;-64
2023/05/20 13:08:56;;;;;;;;;;;29.80;50.50;;;;;;5095569;28;20005;-62
2023/05/20 13:11:22;;;;;;;;;;;30.10;52.60;;;;;;5097745;28;20079;-63
2023/05/20 13:13:47;;;;;;;;;;;29.60;50.30;;;;;;5097770;28;19985;-63
2023/05/20 13:16:15;;;;;;;;;;;29.40;51.50;;;;;;5098069;28;19992;-63
2023/05/20 13:18:41;;;;;;;;;;;29.80;52.40;;;;;;5097830;28;19981;-64
2023/05/20 13:21:06;;;;;;;;;;;30.00;50.90;;;;;;5097574;28;20461;-62
2023/05/20 13:23:32;;;;;;;;;;;29.80;52.50;;;;;;5097644;28;20012;-63
2023/05/20 13:25:57;;;;;;;;;;;30.10;53.30;;;;;;5097427;28;20072;-64
2023/05/20 13:28:23;;;;;;;;;;;30.40;52.70;;;;;;5097511;28;20096;-62
2023/05/20 13:30:49;;;;;;;;;;;30.60;52.80;;;;;;5097451;28;20006;-62
2023/05/20 13:33:15;;;;;;;;;;;30.80;53.60;;;;;;5097719;28;20023;-63
2023/05/20 13:35:40;;;;;;;;;;;31.10;51.70;;;;;;5097394;28;20431;-63
2023/05/20 13:38:06;;;;;;;;;;;31.20;52.50;;;;;;5097164;28;20024;-63
2023/05/20 13:40:32;;;;;;;;;;;31.00;48.00;;;;;;5097179;28;20046;-64
2023/05/20 13:42:57;;;;;;;;;;;30.70;48.30;;;;;;5097561;28;20411;-62
2023/05/20 13:45:23;;;;;;;;;;;30.60;49.90;;;;;;5097426;28;20459;-62
2023/05/20 13:47:48;;;;;;;;;;;30.30;49.60;;;;;;5097166;28;20339;-65
2023/05/20 13:50:14;;;;;;;;;;;30.40;49.80;;;;;;5097270;28;20079;-64
2023/05/20 13:52:40;;;;;;;;;;;30.50;47.50;;;;;;5097104;28;19988;-64
2023/05/20 13:55:06;;;;;;;;;;;30.50;50.30;;;;;;5096777;28;19991;-64
2023/05/20 13:57:32;;;;;;;;;;;30.70;49.20;;;;;;5096990;28;20068;-62
2023/05/20 13:59:57;;;;;;;;;;;31.00;49.00;;;;;;5096973;28;20008;-64
2023/05/20 14:02:23;;;;;;;;;;;31.10;50.30;;;;;;5096768;28;19985;-62
2023/05/20 14:04:48;;;;;;;;;;;31.00;49.30;;;;;;5096878;28;19981;-62
2023/05/20 14:07:14;;;;;;;;;;;31.00;49.20;;;;;;5097107;28;19988;-62
2023/05/20 14:09:39;;;;;;;;;;;31.10;50.50;;;;;;5096723;28;20009;-64
2023/05/20 14:12:05;;;;;;;;;;;31.00;48.60;;;;;;5096713;28;19985;-64